sensor_id;sensor_type;location;lat;lon;timestamp;temperature;humidity
7155;DHT22;3619;53.784;10.440;2022-09-20T01:16:26;8.10;99.90
7155;DHT22;3619;53.784;10.440;2022-09-20T01:19:33;8.10;99.90
7155;DHT22;3619;53.784;10.440;2022-09-20T01:22:30;8.10;99.90
7155;DHT22;3619;53.784;10.440;2022-09-20T01:28:49;8.10;99.90
7155;DHT22;3619;53.784;10.440;2022-09-20T01:31:24;8.10;99.90
7155;DHT22;3619;53.784;10.440;2022-09-20T01:34:28;8.00;99.90
7155;DHT22;3619;53.784;10.440;2022-09-20T01:37:49;8.00;99.90
7155;DHT22;3619;53.784;10.440;2022-09-20T01:40:27;8.00;99.90
7155;DHT22;3619;53.784;10.440;2022-09-20T02:09:38;7.80;99.90
7155;DHT22;3619;53.784;10.440;2022-09-20T02:12:47;7.80;99.90
7155;DHT22;3619;53.784;10.440;2022-09-20T02:16:08;7.80;99.90
7155;DHT22;3619;53.784;10.440;2022-09-20T02:49:46;7.50;99.90
7155;DHT22;3619;53.784;10.440;2022-09-20T02:52:33;7.50;99.90
7155;DHT22;3619;53.784;10.440;2022-09-20T03:40:14;7.20;99.90
7155;DHT22;3619;53.784;10.440;2022-09-20T03:42:53;7.10;99.90
7155;DHT22;3619;53.784;10.440;2022-09-20T03:45:48;7.20;99.90
7155;DHT22;3619;53.784;10.440;2022-09-20T03:51:30;7.20;99.90
7155;DHT22;3619;53.784;10.440;2022-09-20T03:57:22;7.10;99.90
7155;DHT22;3619;53.784;10.440;2022-09-20T04:00:07;7.10;99.90
7155;DHT22;3619;53.784;10.440;2022-09-20T04:05:49;7.00;99.90
7155;DHT22;3619;53.784;10.440;2022-09-20T04:08:31;7.00;99.90
7155;DHT22;3619;53.784;10.440;2022-09-20T04:11:05;7.00;99.90
7155;DHT22;3619;53.784;10.440;2022-09-20T04:13:45;6.90;99.90
7155;DHT22;3619;53.784;10.440;2022-09-20T04:16:21;6.90;99.90
7155;DHT22;3619;53.784;10.440;2022-09-20T04:18:58;6.90;99.90
7155;DHT22;3619;53.784;10.440;2022-09-20T04:21:54;6.90;99.90
7155;DHT22;3619;53.784;10.440;2022-09-20T04:24:36;6.90;99.90
7155;DHT22;3619;53.784;10.440;2022-09-20T04:27:13;6.90;99.90
7155;DHT22;3619;53.784;10.440;2022-09-20T04:29:51;6.80;99.90
7155;DHT22;3619;53.784;10.440;2022-09-20T04:32:32;6.80;99.90
7155;DHT22;3619;53.784;10.440;2022-09-20T04:35:04;6.80;99.90
7155;DHT22;3619;53.784;10.440;2022-09-20T04:37:58;6.80;99.90
7155;DHT22;3619;53.784;10.440;2022-09-20T04:40:52;6.80;99.90
7155;DHT22;3619;53.784;10.440;2022-09-20T04:43:54;6.80;99.90
7155;DHT22;3619;53.784;10.440;2022-09-20T04:46:53;6.70;99.90
7155;DHT22;3619;53.784;10.440;2022-09-20T04:49:49;6.80;99.90
7155;DHT22;3619;53.784;10.440;2022-09-20T04:55:36;6.70;99.90
7155;DHT22;3619;53.784;10.440;2022-09-20T04:58:36;6.70;99.90
7155;DHT22;3619;53.784;10.440;2022-09-20T05:07:52;6.70;99.90
7155;DHT22;3619;53.784;10.440;2022-09-20T05:13:55;6.70;99.90
7155;DHT22;3619;53.784;10.440;2022-09-20T05:16:34;6.70;99.90
7155;DHT22;3619;53.784;10.440;2022-09-20T05:19:25;6.70;99.90
7155;DHT22;3619;53.784;10.440;2022-09-20T05:22:22;6.70;99.90
7155;DHT22;3619;53.784;10.440;2022-09-20T05:25:20;6.70;99.90
7155;DHT22;3619;53.784;10.440;2022-09-20T05:34:23;6.70;99.90
7155;DHT22;3619;53.784;10.440;2022-09-20T05:36:57;6.70;99.90
7155;DHT22;3619;53.784;10.440;2022-09-20T05:39:39;6.80;99.90
7155;DHT22;3619;53.784;10.440;2022-09-20T05:42:24;6.90;99.90
7155;DHT22;3619;53.784;10.440;2022-09-20T05:45:06;6.90;99.90
7155;DHT22;3619;53.784;10.440;2022-09-20T05:47:54;7.00;99.90
7155;DHT22;3619;53.784;10.440;2022-09-20T05:50:46;7.20;99.90
7155;DHT22;3619;53.784;10.440;2022-09-20T05:53:40;7.30;99.90
7155;DHT22;3619;53.784;10.440;2022-09-20T05:56:17;7.40;99.90
7155;DHT22;3619;53.784;10.440;2022-09-20T05:59:00;7.50;99.90
7155;DHT22;3619;53.784;10.440;2022-09-20T06:01:36;7.60;99.90
7155;DHT22;3619;53.784;10.440;2022-09-20T06:04:13;7.70;99.90
7155;DHT22;3619;53.784;10.440;2022-09-20T06:07:05;7.70;99.90
7155;DHT22;3619;53.784;10.440;2022-09-20T06:12:50;7.80;99.90
7155;DHT22;3619;53.784;10.440;2022-09-20T06:16:12;8.00;99.90
7155;DHT22;3619;53.784;10.440;2022-09-20T06:19:03;8.00;99.90
7155;DHT22;3619;53.784;10.440;2022-09-20T06:21:49;8.10;99.90
7155;DHT22;3619;53.784;10.440;2022-09-20T06:24:57;8.20;99.90
7155;DHT22;3619;53.784;10.440;2022-09-20T06:28:05;8.20;99.90
7155;DHT22;3619;53.784;10.440;2022-09-20T06:30:58;8.30;99.90
7155;DHT22;3619;53.784;10.440;2022-09-20T06:37:46;8.50;99.90
7155;DHT22;3619;53.784;10.440;2022-09-20T08:10:24;11.70;99.90
7155;DHT22;3619;53.784;10.440;2022-09-20T08:12:52;11.50;99.90
7155;DHT22;3619;53.784;10.440;2022-09-20T08:15:19;11.50;99.90
7155;DHT22;3619;53.784;10.440;2022-09-20T08:17:46;11.60;99.90
7155;DHT22;3619;53.784;10.440;2022-09-20T08:20:17;11.70;99.90
7155;DHT22;3619;53.784;10.440;2022-09-20T08:22:44;12.00;99.90
7155;DHT22;3619;53.784;10.440;2022-09-20T08:25:18;12.00;99.90
7155;DHT22;3619;53.784;10.440;2022-09-20T08:28:05;12.20;99.90
7155;DHT22;3619;53.784;10.440;2022-09-20T08:30:32;12.10;99.90
7155;DHT22;3619;53.784;10.440;2022-09-20T08:32:58;12.20;99.90
7155;DHT22;3619;53.784;10.440;2022-09-20T08:35:26;12.10;99.90
7155;DHT22;3619;53.784;10.440;2022-09-20T08:37:54;12.10;99.90
7155;DHT22;3619;53.784;10.440;2022-09-20T08:40:23;12.10;99.90
7155;DHT22;3619;53.784;10.440;2022-09-20T08:42:51;12.30;99.90
7155;DHT22;3619;53.784;10.440;2022-09-20T08:45:24;12.50;99.90
7155;DHT22;3619;53.784;10.440;2022-09-20T08:47:58;12.60;99.90
7155;DHT22;3619;53.784;10.440;2022-09-20T08:50:27;12.70;99.90
7155;DHT22;3619;53.784;10.440;2022-09-20T08:52:56;12.70;99.90
7155;DHT22;3619;53.784;10.440;2022-09-20T08:55:44;12.80;99.90
7155;DHT22;3619;53.784;10.440;2022-09-20T08:58:11;12.90;99.90
7155;DHT22;3619;53.784;10.440;2022-09-20T09:00:42;13.00;99.90
7155;DHT22;3619;53.784;10.440;2022-09-20T09:03:12;13.00;99.90
7155;DHT22;3619;53.784;10.440;2022-09-20T09:05:44;13.10;99.90
7155;DHT22;3619;53.784;10.440;2022-09-20T09:08:14;13.10;99.90
7155;DHT22;3619;53.784;10.440;2022-09-20T09:10:43;13.00;99.90
7155;DHT22;3619;53.784;10.440;2022-09-20T09:13:22;13.20;99.90
7155;DHT22;3619;53.784;10.440;2022-09-20T09:16:05;13.30;99.90
7155;DHT22;3619;53.784;10.440;2022-09-20T09:18:36;13.30;99.90
7155;DHT22;3619;53.784;10.440;2022-09-20T09:21:05;13.30;99.90
7155;DHT22;3619;53.784;10.440;2022-09-20T09:23:39;13.20;99.90
7155;DHT22;3619;53.784;10.440;2022-09-20T09:26:15;13.10;99.90
7155;DHT22;3619;53.784;10.440;2022-09-20T09:28:42;13.10;99.90
7155;DHT22;3619;53.784;10.440;2022-09-20T09:31:22;13.20;99.90
7155;DHT22;3619;53.784;10.440;2022-09-20T09:33:50;13.30;99.90
7155;DHT22;3619;53.784;10.440;2022-09-20T09:36:20;13.30;99.90
7155;DHT22;3619;53.784;10.440;2022-09-20T09:39:13;13.40;99.90
7155;DHT22;3619;53.784;10.440;2022-09-20T09:41:57;13.50;99.90
7155;DHT22;3619;53.784;10.440;2022-09-20T09:44:26;13.60;99.90
7155;DHT22;3619;53.784;10.440;2022-09-20T09:46:55;13.50;99.90
7155;DHT22;3619;53.784;10.440;2022-09-20T09:49:23;13.70;99.90
7155;DHT22;3619;53.784;10.440;2022-09-20T09:52:09;13.80;99.90
7155;DHT22;3619;53.784;10.440;2022-09-20T09:54:39;13.70;99.90
7155;DHT22;3619;53.784;10.440;2022-09-20T09:57:22;13.90;99.90
7155;DHT22;3619;53.784;10.440;2022-09-20T10:00:07;13.80;99.90
7155;DHT22;3619;53.784;10.440;2022-09-20T10:02:57;14.00;99.90
7155;DHT22;3619;53.784;10.440;2022-09-20T10:05:30;14.00;99.90
7155;DHT22;3619;53.784;10.440;2022-09-20T10:08:08;14.00;99.90
7155;DHT22;3619;53.784;10.440;2022-09-20T10:10:50;13.80;99.90
7155;DHT22;3619;53.784;10.440;2022-09-20T10:13:25;13.90;99.90
7155;DHT22;3619;53.784;10.440;2022-09-20T10:16:00;14.00;99.90
7155;DHT22;3619;53.784;10.440;2022-09-20T10:18:41;14.00;99.90
7155;DHT22;3619;53.784;10.440;2022-09-20T10:21:22;14.00;99.90
7155;DHT22;3619;53.784;10.440;2022-09-20T10:24:07;14.20;99.90
7155;DHT22;3619;53.784;10.440;2022-09-20T10:26:55;14.40;99.90
7155;DHT22;3619;53.784;10.440;2022-09-20T10:29:32;14.40;99.90
7155;DHT22;3619;53.784;10.440;2022-09-20T10:32:14;14.50;99.90
7155;DHT22;3619;53.784;10.440;2022-09-20T10:35:10;14.40;99.90
7155;DHT22;3619;53.784;10.440;2022-09-20T10:37:49;14.60;99.90
7155;DHT22;3619;53.784;10.440;2022-09-20T10:40:25;14.50;99.90
7155;DHT22;3619;53.784;10.440;2022-09-20T10:43:26;14.60;99.90
7155;DHT22;3619;53.784;10.440;2022-09-20T10:46:04;14.60;99.90
7155;DHT22;3619;53.784;10.440;2022-09-20T10:48:40;14.90;99.90
7155;DHT22;3619;53.784;10.440;2022-09-20T10:51:16;14.90;99.90
7155;DHT22;3619;53.784;10.440;2022-09-20T10:53:56;15.10;99.90
7155;DHT22;3619;53.784;10.440;2022-09-20T10:56:28;15.20;99.90
7155;DHT22;3619;53.784;10.440;2022-09-20T10:59:23;15.40;99.90
7155;DHT22;3619;53.784;10.440;2022-09-20T11:02:16;15.40;99.90
7155;DHT22;3619;53.784;10.440;2022-09-20T11:07:50;15.40;99.90
7155;DHT22;3619;53.784;10.440;2022-09-20T11:10:21;15.10;99.90
7155;DHT22;3619;53.784;10.440;2022-09-20T11:12:54;15.10;99.90
7155;DHT22;3619;53.784;10.440;2022-09-20T11:15:25;15.20;99.90
7155;DHT22;3619;53.784;10.440;2022-09-20T11:18:03;15.10;99.90
7155;DHT22;3619;53.784;10.440;2022-09-20T11:20:39;15.00;99.90
7155;DHT22;3619;53.784;10.440;2022-09-20T11:23:13;14.90;99.90
7155;DHT22;3619;53.784;10.440;2022-09-20T11:25:47;14.90;99.90
7155;DHT22;3619;53.784;10.440;2022-09-20T11:28:19;14.90;99.90
7155;DHT22;3619;53.784;10.440;2022-09-20T11:30:52;15.20;99.90
7155;DHT22;3619;53.784;10.440;2022-09-20T11:33:25;15.20;99.90
7155;DHT22;3619;53.784;10.440;2022-09-20T11:35:57;15.40;99.90
7155;DHT22;3619;53.784;10.440;2022-09-20T11:38:30;15.50;99.90
7155;DHT22;3619;53.784;10.440;2022-09-20T11:41:01;15.30;99.90
7155;DHT22;3619;53.784;10.440;2022-09-20T11:43:30;15.10;99.90
7155;DHT22;3619;53.784;10.440;2022-09-20T11:46:00;15.00;99.90
7155;DHT22;3619;53.784;10.440;2022-09-20T11:48:31;15.20;99.90
7155;DHT22;3619;53.784;10.440;2022-09-20T11:54:33;15.50;99.90
7155;DHT22;3619;53.784;10.440;2022-09-20T11:57:04;15.40;99.90
7155;DHT22;3619;53.784;10.440;2022-09-20T11:59:35;15.70;99.90
7155;DHT22;3619;53.784;10.440;2022-09-20T12:02:10;15.80;99.90
7155;DHT22;3619;53.784;10.440;2022-09-20T12:04:42;16.00;99.90
7155;DHT22;3619;53.784;10.440;2022-09-20T12:07:17;16.10;99.90
7155;DHT22;3619;53.784;10.440;2022-09-20T12:09:51;16.20;99.90
7155;DHT22;3619;53.784;10.440;2022-09-20T12:12:31;16.30;99.90
7155;DHT22;3619;53.784;10.440;2022-09-20T12:15:00;16.20;99.90
7155;DHT22;3619;53.784;10.440;2022-09-20T12:18:11;16.40;99.90
7155;DHT22;3619;53.784;10.440;2022-09-20T12:21:13;16.50;99.90
7155;DHT22;3619;53.784;10.440;2022-09-20T12:24:19;16.20;99.90
7155;DHT22;3619;53.784;10.440;2022-09-20T12:26:52;15.80;99.90
7155;DHT22;3619;53.784;10.440;2022-09-20T12:32:47;15.60;99.90
7155;DHT22;3619;53.784;10.440;2022-09-20T12:38:33;15.90;99.90
7155;DHT22;3619;53.784;10.440;2022-09-20T12:41:07;16.00;99.90
7155;DHT22;3619;53.784;10.440;2022-09-20T12:43:53;16.20;99.90
7155;DHT22;3619;53.784;10.440;2022-09-20T12:46:33;16.30;99.90
7155;DHT22;3619;53.784;10.440;2022-09-20T12:49:26;16.10;99.90
7155;DHT22;3619;53.784;10.440;2022-09-20T12:52:47;16.20;99.90
7155;DHT22;3619;53.784;10.440;2022-09-20T12:55:40;16.20;99.90
7155;DHT22;3619;53.784;10.440;2022-09-20T12:58:25;16.40;99.90
7155;DHT22;3619;53.784;10.440;2022-09-20T13:04:40;16.80;99.90
7155;DHT22;3619;53.784;10.440;2022-09-20T13:07:33;17.00;99.90
7155;DHT22;3619;53.784;10.440;2022-09-20T13:10:03;16.90;99.90
7155;DHT22;3619;53.784;10.440;2022-09-20T13:12:36;16.90;99.90
7155;DHT22;3619;53.784;10.440;2022-09-20T13:15:05;16.90;99.90
7155;DHT22;3619;53.784;10.440;2022-09-20T13:17:35;16.90;99.90
7155;DHT22;3619;53.784;10.440;2022-09-20T13:20:03;16.90;99.90
7155;DHT22;3619;53.784;10.440;2022-09-20T13:22:36;16.90;99.90
7155;DHT22;3619;53.784;10.440;2022-09-20T13:25:13;17.00;99.90
7155;DHT22;3619;53.784;10.440;2022-09-20T13:27:42;16.80;99.90
7155;DHT22;3619;53.784;10.440;2022-09-20T13:30:17;16.40;99.90
7155;DHT22;3619;53.784;10.440;2022-09-20T13:32:44;16.40;99.90
7155;DHT22;3619;53.784;10.440;2022-09-20T13:35:15;16.50;99.90
7155;DHT22;3619;53.784;10.440;2022-09-20T13:37:50;16.40;99.90
7155;DHT22;3619;53.784;10.440;2022-09-20T13:40:20;16.20;99.90
7155;DHT22;3619;53.784;10.440;2022-09-20T13:42:48;16.00;99.90
7155;DHT22;3619;53.784;10.440;2022-09-20T13:45:18;15.70;99.90
7155;DHT22;3619;53.784;10.440;2022-09-20T13:47:50;15.40;99.90
7155;DHT22;3619;53.784;10.440;2022-09-20T13:50:22;15.20;99.90
7155;DHT22;3619;53.784;10.440;2022-09-20T13:52:51;15.10;99.90
7155;DHT22;3619;53.784;10.440;2022-09-20T13:55:26;15.10;99.90
7155;DHT22;3619;53.784;10.440;2022-09-20T13:57:55;15.30;99.90
7155;DHT22;3619;53.784;10.440;2022-09-20T14:00:22;15.60;99.90
7155;DHT22;3619;53.784;10.440;2022-09-20T14:02:51;16.00;99.90
7155;DHT22;3619;53.784;10.440;2022-09-20T14:05:25;16.30;99.90
7155;DHT22;3619;53.784;10.440;2022-09-20T14:07:52;16.60;99.90
7155;DHT22;3619;53.784;10.440;2022-09-20T14:10:28;16.90;99.90
7155;DHT22;3619;53.784;10.440;2022-09-20T14:12:57;17.10;99.90
7155;DHT22;3619;53.784;10.440;2022-09-20T14:15:27;17.20;99.90
7155;DHT22;3619;53.784;10.440;2022-09-20T14:17:56;17.10;99.90
7155;DHT22;3619;53.784;10.440;2022-09-20T14:20:25;16.80;99.90
7155;DHT22;3619;53.784;10.440;2022-09-20T14:22:52;16.60;99.90
7155;DHT22;3619;53.784;10.440;2022-09-20T14:25:21;16.50;99.90
7155;DHT22;3619;53.784;10.440;2022-09-20T14:28:12;16.40;99.90
7155;DHT22;3619;53.784;10.440;2022-09-20T14:30:41;16.50;99.90
7155;DHT22;3619;53.784;10.440;2022-09-20T14:33:14;16.50;99.90
7155;DHT22;3619;53.784;10.440;2022-09-20T14:35:47;16.50;99.90
7155;DHT22;3619;53.784;10.440;2022-09-20T14:38:14;16.40;99.90
7155;DHT22;3619;53.784;10.440;2022-09-20T14:40:45;16.10;99.90
7155;DHT22;3619;53.784;10.440;2022-09-20T14:43:25;15.90;99.90
7155;DHT22;3619;53.784;10.440;2022-09-20T14:45:56;15.50;99.90
7155;DHT22;3619;53.784;10.440;2022-09-20T14:48:35;15.40;99.90
7155;DHT22;3619;53.784;10.440;2022-09-20T14:51:21;15.20;99.90
7155;DHT22;3619;53.784;10.440;2022-09-20T14:53:50;15.20;99.90
7155;DHT22;3619;53.784;10.440;2022-09-20T14:56:31;15.50;99.90
7155;DHT22;3619;53.784;10.440;2022-09-20T14:59:03;15.70;99.90
7155;DHT22;3619;53.784;10.440;2022-09-20T15:01:32;16.10;99.90
7155;DHT22;3619;53.784;10.440;2022-09-20T15:04:05;16.30;99.90
7155;DHT22;3619;53.784;10.440;2022-09-20T15:06:35;16.40;99.90
7155;DHT22;3619;53.784;10.440;2022-09-20T15:09:03;16.50;99.90
7155;DHT22;3619;53.784;10.440;2022-09-20T15:11:31;16.50;99.90
7155;DHT22;3619;53.784;10.440;2022-09-20T15:13:59;16.60;99.90
7155;DHT22;3619;53.784;10.440;2022-09-20T15:16:26;16.50;99.90
7155;DHT22;3619;53.784;10.440;2022-09-20T15:18:53;16.50;99.90
7155;DHT22;3619;53.784;10.440;2022-09-20T15:21:20;16.50;99.90
7155;DHT22;3619;53.784;10.440;2022-09-20T15:23:49;16.70;99.90
7155;DHT22;3619;53.784;10.440;2022-09-20T15:26:16;16.80;99.90
7155;DHT22;3619;53.784;10.440;2022-09-20T15:28:46;16.80;99.90
7155;DHT22;3619;53.784;10.440;2022-09-20T15:31:13;16.80;99.90
7155;DHT22;3619;53.784;10.440;2022-09-20T15:33:42;16.80;99.90
7155;DHT22;3619;53.784;10.440;2022-09-20T15:36:09;16.70;99.90
7155;DHT22;3619;53.784;10.440;2022-09-20T15:38:36;16.60;99.90
7155;DHT22;3619;53.784;10.440;2022-09-20T15:41:04;16.60;99.90
7155;DHT22;3619;53.784;10.440;2022-09-20T15:43:32;16.80;99.90
7155;DHT22;3619;53.784;10.440;2022-09-20T15:46:01;16.90;99.90
7155;DHT22;3619;53.784;10.440;2022-09-20T15:48:41;17.00;99.90
7155;DHT22;3619;53.784;10.440;2022-09-20T15:51:11;16.90;99.90
7155;DHT22;3619;53.784;10.440;2022-09-20T15:53:42;16.70;99.90
7155;DHT22;3619;53.784;10.440;2022-09-20T15:56:16;16.60;99.90
7155;DHT22;3619;53.784;10.440;2022-09-20T15:58:44;16.50;99.90
7155;DHT22;3619;53.784;10.440;2022-09-20T16:01:12;16.30;99.90
7155;DHT22;3619;53.784;10.440;2022-09-20T16:03:41;16.10;99.90
7155;DHT22;3619;53.784;10.440;2022-09-20T16:06:09;16.00;99.90
7155;DHT22;3619;53.784;10.440;2022-09-20T16:08:37;16.00;99.90
7155;DHT22;3619;53.784;10.440;2022-09-20T16:11:05;15.90;99.90
7155;DHT22;3619;53.784;10.440;2022-09-20T16:13:34;16.00;99.90
7155;DHT22;3619;53.784;10.440;2022-09-20T16:16:02;15.80;99.90
7155;DHT22;3619;53.784;10.440;2022-09-20T16:18:29;15.90;99.90
7155;DHT22;3619;53.784;10.440;2022-09-20T16:21:16;15.90;99.90
7155;DHT22;3619;53.784;10.440;2022-09-20T16:23:46;15.80;99.90
7155;DHT22;3619;53.784;10.440;2022-09-20T16:26:14;15.60;99.90
7155;DHT22;3619;53.784;10.440;2022-09-20T16:28:43;15.60;99.90
7155;DHT22;3619;53.784;10.440;2022-09-20T16:31:27;15.60;99.90
7155;DHT22;3619;53.784;10.440;2022-09-20T16:33:54;15.50;99.90
7155;DHT22;3619;53.784;10.440;2022-09-20T16:36:20;15.40;99.90
7155;DHT22;3619;53.784;10.440;2022-09-20T16:38:49;15.30;99.90
7155;DHT22;3619;53.784;10.440;2022-09-20T16:41:16;15.10;99.90
7155;DHT22;3619;53.784;10.440;2022-09-20T16:43:44;15.00;99.90
7155;DHT22;3619;53.784;10.440;2022-09-20T16:46:16;14.90;99.90
7155;DHT22;3619;53.784;10.440;2022-09-20T16:48:44;14.80;99.90
7155;DHT22;3619;53.784;10.440;2022-09-20T16:51:12;14.80;99.90
7155;DHT22;3619;53.784;10.440;2022-09-20T16:53:39;14.70;99.90
7155;DHT22;3619;53.784;10.440;2022-09-20T16:56:06;14.60;99.90
7155;DHT22;3619;53.784;10.440;2022-09-20T16:58:33;14.50;99.90
7155;DHT22;3619;53.784;10.440;2022-09-20T17:01:06;14.40;99.90
7155;DHT22;3619;53.784;10.440;2022-09-20T17:03:33;14.30;99.90
7155;DHT22;3619;53.784;10.440;2022-09-20T17:06:01;14.20;99.90
7155;DHT22;3619;53.784;10.440;2022-09-20T17:08:28;14.20;99.90
7155;DHT22;3619;53.784;10.440;2022-09-20T17:10:58;14.20;99.90
7155;DHT22;3619;53.784;10.440;2022-09-20T17:13:25;14.10;99.90
7155;DHT22;3619;53.784;10.440;2022-09-20T17:15:59;14.10;99.90
7155;DHT22;3619;53.784;10.440;2022-09-20T17:18:27;14.10;99.90
7155;DHT22;3619;53.784;10.440;2022-09-20T17:20:54;14.00;99.90
7155;DHT22;3619;53.784;10.440;2022-09-20T17:23:21;14.00;99.90
7155;DHT22;3619;53.784;10.440;2022-09-20T17:26:00;13.90;99.90
7155;DHT22;3619;53.784;10.440;2022-09-20T17:28:28;13.80;99.90
7155;DHT22;3619;53.784;10.440;2022-09-20T17:30:58;13.80;99.90
7155;DHT22;3619;53.784;10.440;2022-09-20T17:33:27;13.70;99.90
7155;DHT22;3619;53.784;10.440;2022-09-20T17:35:55;13.70;99.90
7155;DHT22;3619;53.784;10.440;2022-09-20T17:38:24;13.60;99.90
7155;DHT22;3619;53.784;10.440;2022-09-20T17:40:58;13.50;99.90
7155;DHT22;3619;53.784;10.440;2022-09-20T17:43:26;13.50;99.90
7155;DHT22;3619;53.784;10.440;2022-09-20T17:45:54;13.50;99.90
7155;DHT22;3619;53.784;10.440;2022-09-20T17:48:21;13.40;99.90
7155;DHT22;3619;53.784;10.440;2022-09-20T17:50:55;13.30;99.90
7155;DHT22;3619;53.784;10.440;2022-09-20T17:53:22;13.20;99.90
7155;DHT22;3619;53.784;10.440;2022-09-20T17:55:52;13.10;99.90
7155;DHT22;3619;53.784;10.440;2022-09-20T17:58:19;13.00;99.90
7155;DHT22;3619;53.784;10.440;2022-09-20T18:00:46;13.00;99.90
7155;DHT22;3619;53.784;10.440;2022-09-20T18:03:13;12.90;99.90
7155;DHT22;3619;53.784;10.440;2022-09-20T18:05:39;12.80;99.90
7155;DHT22;3619;53.784;10.440;2022-09-20T18:08:08;12.80;99.90
7155;DHT22;3619;53.784;10.440;2022-09-20T18:10:36;12.80;99.90
7155;DHT22;3619;53.784;10.440;2022-09-20T18:13:02;12.70;99.90
7155;DHT22;3619;53.784;10.440;2022-09-20T18:15:31;12.70;99.90
7155;DHT22;3619;53.784;10.440;2022-09-20T18:17:58;12.60;99.90
7155;DHT22;3619;53.784;10.440;2022-09-20T18:20:25;12.60;99.90
7155;DHT22;3619;53.784;10.440;2022-09-20T18:22:52;12.50;99.90
7155;DHT22;3619;53.784;10.440;2022-09-20T18:25:20;12.50;99.90
7155;DHT22;3619;53.784;10.440;2022-09-20T18:27:49;12.40;99.90
7155;DHT22;3619;53.784;10.440;2022-09-20T18:30:16;12.40;99.90
7155;DHT22;3619;53.784;10.440;2022-09-20T18:32:49;12.30;99.90
7155;DHT22;3619;53.784;10.440;2022-09-20T18:35:15;12.30;99.90
7155;DHT22;3619;53.784;10.440;2022-09-20T18:37:45;12.20;99.90
7155;DHT22;3619;53.784;10.440;2022-09-20T18:40:13;12.20;99.90
7155;DHT22;3619;53.784;10.440;2022-09-20T18:42:41;12.10;99.90
7155;DHT22;3619;53.784;10.440;2022-09-20T18:45:09;12.10;99.90
7155;DHT22;3619;53.784;10.440;2022-09-20T18:47:36;12.00;99.90
7155;DHT22;3619;53.784;10.440;2022-09-20T18:50:05;11.90;99.90
7155;DHT22;3619;53.784;10.440;2022-09-20T18:52:36;11.90;99.90
7155;DHT22;3619;53.784;10.440;2022-09-20T18:55:03;11.80;99.90
7155;DHT22;3619;53.784;10.440;2022-09-20T18:57:32;11.80;99.90
7155;DHT22;3619;53.784;10.440;2022-09-20T19:00:00;11.80;99.90
7155;DHT22;3619;53.784;10.440;2022-09-20T19:02:52;11.70;99.90
7155;DHT22;3619;53.784;10.440;2022-09-20T19:05:28;11.70;99.90
7155;DHT22;3619;53.784;10.440;2022-09-20T19:08:18;11.70;99.90
7155;DHT22;3619;53.784;10.440;2022-09-20T19:10:52;11.70;99.90
7155;DHT22;3619;53.784;10.440;2022-09-20T19:13:30;11.70;99.90
7155;DHT22;3619;53.784;10.440;2022-09-20T19:16:10;11.70;99.90
7155;DHT22;3619;53.784;10.440;2022-09-20T19:19:06;11.70;99.90
7155;DHT22;3619;53.784;10.440;2022-09-20T19:21:41;11.70;99.90
7155;DHT22;3619;53.784;10.440;2022-09-20T19:24:18;11.70;99.90
7155;DHT22;3619;53.784;10.440;2022-09-20T19:26:50;11.70;99.90
7155;DHT22;3619;53.784;10.440;2022-09-20T19:29:19;11.60;99.90
7155;DHT22;3619;53.784;10.440;2022-09-20T19:31:50;11.70;99.90
7155;DHT22;3619;53.784;10.440;2022-09-20T19:34:20;11.60;99.90
7155;DHT22;3619;53.784;10.440;2022-09-20T19:36:59;11.60;99.90
7155;DHT22;3619;53.784;10.440;2022-09-20T19:39:36;11.60;99.90
7155;DHT22;3619;53.784;10.440;2022-09-20T19:42:11;11.50;99.90
7155;DHT22;3619;53.784;10.440;2022-09-20T19:44:44;11.60;99.90
7155;DHT22;3619;53.784;10.440;2022-09-20T19:47:23;11.50;99.90
7155;DHT22;3619;53.784;10.440;2022-09-20T19:49:53;11.50;99.90
7155;DHT22;3619;53.784;10.440;2022-09-20T19:52:21;11.50;99.90
7155;DHT22;3619;53.784;10.440;2022-09-20T19:54:49;11.40;99.90
7155;DHT22;3619;53.784;10.440;2022-09-20T19:57:20;11.40;99.90
7155;DHT22;3619;53.784;10.440;2022-09-20T19:59:48;11.30;99.90
7155;DHT22;3619;53.784;10.440;2022-09-20T20:02:17;11.30;99.90
7155;DHT22;3619;53.784;10.440;2022-09-20T20:04:44;11.20;99.90
7155;DHT22;3619;53.784;10.440;2022-09-20T20:07:31;11.20;99.90
7155;DHT22;3619;53.784;10.440;2022-09-20T20:10:09;11.20;99.90
7155;DHT22;3619;53.784;10.440;2022-09-20T20:12:49;11.10;99.90
7155;DHT22;3619;53.784;10.440;2022-09-20T20:15:31;11.00;99.90
7155;DHT22;3619;53.784;10.440;2022-09-20T20:18:05;11.00;99.90
7155;DHT22;3619;53.784;10.440;2022-09-20T20:20:38;10.90;99.90
7155;DHT22;3619;53.784;10.440;2022-09-20T20:23:29;10.90;99.90
7155;DHT22;3619;53.784;10.440;2022-09-20T20:26:04;10.80;99.90
7155;DHT22;3619;53.784;10.440;2022-09-20T20:28:33;10.80;99.90
7155;DHT22;3619;53.784;10.440;2022-09-20T20:31:00;10.70;99.90
7155;DHT22;3619;53.784;10.440;2022-09-20T20:33:29;10.70;99.90
7155;DHT22;3619;53.784;10.440;2022-09-20T20:35:58;10.70;99.90
7155;DHT22;3619;53.784;10.440;2022-09-20T20:38:26;10.60;99.90
7155;DHT22;3619;53.784;10.440;2022-09-20T20:40:58;10.60;99.90
7155;DHT22;3619;53.784;10.440;2022-09-20T20:43:29;10.60;99.90
7155;DHT22;3619;53.784;10.440;2022-09-20T20:45:56;10.50;99.90
7155;DHT22;3619;53.784;10.440;2022-09-20T20:48:23;10.50;99.90
7155;DHT22;3619;53.784;10.440;2022-09-20T20:51:00;10.40;99.90
7155;DHT22;3619;53.784;10.440;2022-09-20T20:53:31;10.40;99.90
7155;DHT22;3619;53.784;10.440;2022-09-20T20:56:03;10.40;99.90
7155;DHT22;3619;53.784;10.440;2022-09-20T20:58:32;10.40;99.90
7155;DHT22;3619;53.784;10.440;2022-09-20T21:01:09;10.40;99.90
7155;DHT22;3619;53.784;10.440;2022-09-20T21:03:37;10.30;99.90
7155;DHT22;3619;53.784;10.440;2022-09-20T21:06:06;10.30;99.90
7155;DHT22;3619;53.784;10.440;2022-09-20T21:08:33;10.20;99.90
7155;DHT22;3619;53.784;10.440;2022-09-20T21:11:03;10.20;99.90
7155;DHT22;3619;53.784;10.440;2022-09-20T21:13:31;10.20;99.90
7155;DHT22;3619;53.784;10.440;2022-09-20T21:16:02;10.10;99.90
7155;DHT22;3619;53.784;10.440;2022-09-20T21:18:30;10.10;99.90
7155;DHT22;3619;53.784;10.440;2022-09-20T21:20:57;10.00;99.90
7155;DHT22;3619;53.784;10.440;2022-09-20T21:23:25;10.00;99.90
7155;DHT22;3619;53.784;10.440;2022-09-20T21:26:02;10.00;99.90
7155;DHT22;3619;53.784;10.440;2022-09-20T21:28:31;9.90;99.90
7155;DHT22;3619;53.784;10.440;2022-09-20T21:30:59;9.90;99.90
7155;DHT22;3619;53.784;10.440;2022-09-20T21:33:25;9.90;99.90
7155;DHT22;3619;53.784;10.440;2022-09-20T21:35:57;9.80;99.90
7155;DHT22;3619;53.784;10.440;2022-09-20T21:38:25;9.80;99.90
7155;DHT22;3619;53.784;10.440;2022-09-20T21:41:03;9.80;99.90
7155;DHT22;3619;53.784;10.440;2022-09-20T21:43:31;9.80;99.90
7155;DHT22;3619;53.784;10.440;2022-09-20T21:45:58;9.70;99.90
7155;DHT22;3619;53.784;10.440;2022-09-20T21:48:26;9.70;99.90
7155;DHT22;3619;53.784;10.440;2022-09-20T21:51:00;9.70;99.90
7155;DHT22;3619;53.784;10.440;2022-09-20T21:53:29;9.60;99.90
7155;DHT22;3619;53.784;10.440;2022-09-20T21:55:57;9.60;99.90
7155;DHT22;3619;53.784;10.440;2022-09-20T21:58:24;9.50;99.90
7155;DHT22;3619;53.784;10.440;2022-09-20T22:01:01;9.50;99.90
7155;DHT22;3619;53.784;10.440;2022-09-20T22:03:30;9.50;99.90
7155;DHT22;3619;53.784;10.440;2022-09-20T22:06:03;9.50;99.90